sensor_id;sensor_type;location;lat;lon;timestamp;pressure;altitude;pressure_sealevel;temperature;humidity
26563;BME280;14217;50.986;5.826;2024-01-15T00:03:33;99839.09;;;16.65;38.63
26563;BME280;14217;50.986;5.826;2024-01-15T00:08:35;99836.53;;;16.64;38.48
26563;BME280;14217;50.986;5.826;2024-01-15T00:13:37;99831.31;;;16.62;38.54
26563;BME280;14217;50.986;5.826;2024-01-15T00:18:39;99840.03;;;16.64;38.57
26563;BME280;14217;50.986;5.826;2024-01-15T00:23:44;99827.59;;;16.66;38.55
26563;BME280;14217;50.986;5.826;2024-01-15T00:28:46;99818.03;;;16.64;38.57
26563;BME280;14217;50.986;5.826;2024-01-15T00:33:48;99820.59;;;16.65;38.68
26563;BME280;14217;50.986;5.826;2024-01-15T00:38:51;99826.09;;;16.61;38.40
26563;BME280;14217;50.986;5.826;2024-01-15T00:43:53;99811.19;;;16.60;38.76
26563;BME280;14217;50.986;5.826;2024-01-15T00:48:55;99807.44;;;16.64;38.54
26563;BME280;14217;50.986;5.826;2024-01-15T00:53:58;99807.38;;;16.65;38.34
26563;BME280;14217;50.986;5.826;2024-01-15T00:59:00;99814.28;;;16.68;38.48
26563;BME280;14217;50.986;5.826;2024-01-15T01:04:02;99807.28;;;16.67;38.51
26563;BME280;14217;50.986;5.826;2024-01-15T01:09:04;99810.25;;;16.61;38.51
26563;BME280;14217;50.986;5.826;2024-01-15T01:14:07;99803.84;;;16.65;38.35
26563;BME280;14217;50.986;5.826;2024-01-15T01:19:09;99790.63;;;16.65;38.22
26563;BME280;14217;50.986;5.826;2024-01-15T01:24:11;99784.56;;;16.63;38.29
26563;BME280;14217;50.986;5.826;2024-01-15T01:29:13;99786.28;;;16.64;38.53
26563;BME280;14217;50.986;5.826;2024-01-15T01:34:16;99797.78;;;16.63;38.17
26563;BME280;14217;50.986;5.826;2024-01-15T01:39:18;99793.28;;;16.65;38.19
26563;BME280;14217;50.986;5.826;2024-01-15T01:44:20;99805.66;;;16.64;38.23
26563;BME280;14217;50.986;5.826;2024-01-15T01:49:23;99797.00;;;16.61;38.34
26563;BME280;14217;50.986;5.826;2024-01-15T01:54:29;99802.41;;;16.59;38.62
26563;BME280;14217;50.986;5.826;2024-01-15T01:59:34;99798.88;;;16.59;38.60
26563;BME280;14217;50.986;5.826;2024-01-15T02:04:36;99791.81;;;16.59;38.33
26563;BME280;14217;50.986;5.826;2024-01-15T02:09:41;99797.97;;;16.60;38.20
26563;BME280;14217;50.986;5.826;2024-01-15T02:14:43;99789.06;;;16.61;38.35
26563;BME280;14217;50.986;5.826;2024-01-15T02:19:45;99783.72;;;16.62;38.39
26563;BME280;14217;50.986;5.826;2024-01-15T02:24:47;99776.81;;;16.60;38.44
26563;BME280;14217;50.986;5.826;2024-01-15T02:29:50;99785.50;;;16.62;38.24
26563;BME280;14217;50.986;5.826;2024-01-15T02:34:53;99777.41;;;16.65;38.19
26563;BME280;14217;50.986;5.826;2024-01-15T02:39:55;99778.94;;;16.69;38.21
26563;BME280;14217;50.986;5.826;2024-01-15T02:44:57;99774.75;;;16.65;38.12
26563;BME280;14217;50.986;5.826;2024-01-15T02:50:00;99777.66;;;16.60;38.21
26563;BME280;14217;50.986;5.826;2024-01-15T02:55:03;99777.59;;;16.62;38.06
26563;BME280;14217;50.986;5.826;2024-01-15T03:00:06;99773.00;;;16.65;38.32
26563;BME280;14217;50.986;5.826;2024-01-15T03:05:12;99768.69;;;16.63;38.20
26563;BME280;14217;50.986;5.826;2024-01-15T03:10:14;99767.00;;;16.62;38.22
26563;BME280;14217;50.986;5.826;2024-01-15T03:15:16;99759.00;;;16.63;38.00
26563;BME280;14217;50.986;5.826;2024-01-15T03:20:20;99768.03;;;16.59;38.11
26563;BME280;14217;50.986;5.826;2024-01-15T03:25:22;99774.16;;;16.60;38.25
26563;BME280;14217;50.986;5.826;2024-01-15T03:30:24;99774.31;;;16.57;38.34
26563;BME280;14217;50.986;5.826;2024-01-15T03:35:26;99774.50;;;16.54;38.20
26563;BME280;14217;50.986;5.826;2024-01-15T03:40:31;99757.66;;;16.55;38.44
26563;BME280;14217;50.986;5.826;2024-01-15T03:45:33;99770.56;;;16.61;38.06
26563;BME280;14217;50.986;5.826;2024-01-15T03:50:35;99760.16;;;16.58;38.15
26563;BME280;14217;50.986;5.826;2024-01-15T03:55:37;99746.94;;;16.58;38.13
26563;BME280;14217;50.986;5.826;2024-01-15T04:00:39;99740.88;;;16.56;38.37
26563;BME280;14217;50.986;5.826;2024-01-15T04:05:41;99742.59;;;16.57;38.39
26563;BME280;14217;50.986;5.826;2024-01-15T04:10:43;99735.41;;;16.59;38.20
26563;BME280;14217;50.986;5.826;2024-01-15T04:15:45;99731.09;;;16.58;38.16
26563;BME280;14217;50.986;5.826;2024-01-15T04:20:48;99729.47;;;16.55;38.09
26563;BME280;14217;50.986;5.826;2024-01-15T04:25:50;99724.06;;;16.57;38.20
26563;BME280;14217;50.986;5.826;2024-01-15T04:30:52;99712.72;;;16.55;38.13
26563;BME280;14217;50.986;5.826;2024-01-15T04:35:54;99719.66;;;16.57;38.37
26563;BME280;14217;50.986;5.826;2024-01-15T04:40:56;99712.91;;;16.52;38.32
26563;BME280;14217;50.986;5.826;2024-01-15T04:45:59;99712.81;;;16.53;38.37
26563;BME280;14217;50.986;5.826;2024-01-15T04:51:04;99702.16;;;16.55;38.36
26563;BME280;14217;50.986;5.826;2024-01-15T04:56:06;99703.16;;;16.52;38.47
26563;BME280;14217;50.986;5.826;2024-01-15T05:01:08;99699.50;;;16.55;38.12
26563;BME280;14217;50.986;5.826;2024-01-15T05:06:12;99704.19;;;16.50;38.43
26563;BME280;14217;50.986;5.826;2024-01-15T05:11:14;99709.50;;;16.50;38.23
26563;BME280;14217;50.986;5.826;2024-01-15T05:16:16;99699.69;;;16.52;38.37
26563;BME280;14217;50.986;5.826;2024-01-15T05:21:18;99696.84;;;16.55;38.12
26563;BME280;14217;50.986;5.826;2024-01-15T05:26:20;99694.47;;;16.50;38.56
26563;BME280;14217;50.986;5.826;2024-01-15T05:31:22;99698.72;;;16.53;38.22
26563;BME280;14217;50.986;5.826;2024-01-15T05:36:24;99700.44;;;16.54;38.32
26563;BME280;14217;50.986;5.826;2024-01-15T05:41:26;99697.03;;;16.52;38.27
26563;BME280;14217;50.986;5.826;2024-01-15T05:46:28;99682.88;;;16.53;38.19
26563;BME280;14217;50.986;5.826;2024-01-15T05:51:30;99677.75;;;16.50;38.29
26563;BME280;14217;50.986;5.826;2024-01-15T05:56:33;99673.41;;;16.49;38.53
26563;BME280;14217;50.986;5.826;2024-01-15T06:01:35;99666.84;;;16.56;38.24
26563;BME280;14217;50.986;5.826;2024-01-15T06:06:37;99663.44;;;16.54;38.24
26563;BME280;14217;50.986;5.826;2024-01-15T06:11:39;99662.66;;;16.52;38.08
26563;BME280;14217;50.986;5.826;2024-01-15T06:16:41;99652.00;;;16.53;38.15
26563;BME280;14217;50.986;5.826;2024-01-15T06:21:43;99649.63;;;16.49;38.57
26563;BME280;14217;50.986;5.826;2024-01-15T06:26:46;99667.00;;;16.37;39.49
26563;BME280;14217;50.986;5.826;2024-01-15T06:31:48;99661.56;;;16.56;39.19
26563;BME280;14217;50.986;5.826;2024-01-15T06:36:51;99660.88;;;16.52;38.98
26563;BME280;14217;50.986;5.826;2024-01-15T06:41:53;99651.53;;;16.29;39.62
26563;BME280;14217;50.986;5.826;2024-01-15T06:46:55;99657.28;;;16.37;39.60
26563;BME280;14217;50.986;5.826;2024-01-15T06:51:59;99657.28;;;16.37;39.37
26563;BME280;14217;50.986;5.826;2024-01-15T06:57:01;99664.03;;;16.43;39.11
26563;BME280;14217;50.986;5.826;2024-01-15T07:02:04;99660.69;;;16.39;39.03
26563;BME280;14217;50.986;5.826;2024-01-15T07:07:06;99648.25;;;16.41;38.97
26563;BME280;14217;50.986;5.826;2024-01-15T07:12:08;99650.63;;;16.46;39.06
26563;BME280;14217;50.986;5.826;2024-01-15T07:17:10;99656.16;;;16.41;38.96
26563;BME280;14217;50.986;5.826;2024-01-15T07:22:12;99652.41;;;16.45;38.58
26563;BME280;14217;50.986;5.826;2024-01-15T07:27:14;99660.34;;;16.45;38.50
26563;BME280;14217;50.986;5.826;2024-01-15T07:32:17;99650.63;;;16.46;38.39
26563;BME280;14217;50.986;5.826;2024-01-15T07:37:19;99647.41;;;16.41;38.42
26563;BME280;14217;50.986;5.826;2024-01-15T07:42:21;99656.16;;;16.41;38.70
26563;BME280;14217;50.986;5.826;2024-01-15T07:47:23;99653.53;;;16.41;38.45
26563;BME280;14217;50.986;5.826;2024-01-15T07:52:26;99655.16;;;16.44;38.38
26563;BME280;14217;50.986;5.826;2024-01-15T07:57:27;99657.13;;;16.40;38.59
26563;BME280;14217;50.986;5.826;2024-01-15T08:02:30;99656.09;;;16.43;38.49
26563;BME280;14217;50.986;5.826;2024-01-15T08:07:35;99654.47;;;16.40;39.01
26563;BME280;14217;50.986;5.826;2024-01-15T08:12:37;99671.09;;;16.42;38.92
26563;BME280;14217;50.986;5.826;2024-01-15T08:17:40;99660.53;;;16.42;38.80
26563;BME280;14217;50.986;5.826;2024-01-15T08:22:42;99653.38;;;16.44;38.49
26563;BME280;14217;50.986;5.826;2024-01-15T08:27:44;99662.06;;;16.46;38.62
26563;BME280;14217;50.986;5.826;2024-01-15T08:32:47;99669.47;;;16.40;39.11
26563;BME280;14217;50.986;5.826;2024-01-15T08:37:49;99665.66;;;16.12;39.52
26563;BME280;14217;50.986;5.826;2024-01-15T08:42:51;99687.00;;;15.92;40.17
26563;BME280;14217;50.986;5.826;2024-01-15T08:47:53;99687.63;;;15.97;39.91
26563;BME280;14217;50.986;5.826;2024-01-15T08:52:55;99698.00;;;16.00;40.70
26563;BME280;14217;50.986;5.826;2024-01-15T08:57:57;99703.16;;;16.03;41.01
26563;BME280;14217;50.986;5.826;2024-01-15T09:02:59;99693.75;;;15.97;41.46
26563;BME280;14217;50.986;5.826;2024-01-15T09:08:02;99712.22;;;15.97;40.61
26563;BME280;14217;50.986;5.826;2024-01-15T09:13:04;99713.00;;;15.99;40.30
26563;BME280;14217;50.986;5.826;2024-01-15T09:18:06;99713.19;;;15.96;40.10
26563;BME280;14217;50.986;5.826;2024-01-15T09:23:09;99713.19;;;15.96;40.03
26563;BME280;14217;50.986;5.826;2024-01-15T09:28:14;99709.00;;;15.92;40.07
26563;BME280;14217;50.986;5.826;2024-01-15T09:33:16;99709.00;;;15.92;40.17
26563;BME280;14217;50.986;5.826;2024-01-15T09:38:20;99702.16;;;15.88;40.18
26563;BME280;14217;50.986;5.826;2024-01-15T09:43:22;99699.34;;;16.09;39.70
26563;BME280;14217;50.986;5.826;2024-01-15T09:48:24;99703.72;;;16.25;39.16
26563;BME280;14217;50.986;5.826;2024-01-15T09:53:26;99704.41;;;16.29;39.04
26563;BME280;14217;50.986;5.826;2024-01-15T09:58:28;99698.34;;;16.27;39.38
26563;BME280;14217;50.986;5.826;2024-01-15T10:03:31;99689.84;;;16.38;38.73
26563;BME280;14217;50.986;5.826;2024-01-15T10:08:36;99688.75;;;16.42;38.58
26563;BME280;14217;50.986;5.826;2024-01-15T10:13:45;99722.97;;;16.45;38.22
26563;BME280;14217;50.986;5.826;2024-01-15T10:18:51;99707.41;;;16.39;38.37
26563;BME280;14217;50.986;5.826;2024-01-15T10:23:53;99725.09;;;16.54;37.99
26563;BME280;14217;50.986;5.826;2024-01-15T10:28:56;99726.03;;;16.53;38.04
26563;BME280;14217;50.986;5.826;2024-01-15T10:34:13;99713.41;;;16.42;38.04
26563;BME280;14217;50.986;5.826;2024-01-15T10:39:17;99709.63;;;16.31;38.49
26563;BME280;14217;50.986;5.826;2024-01-15T10:44:19;99713.22;;;16.30;38.12
26563;BME280;14217;50.986;5.826;2024-01-15T10:49:21;99699.56;;;16.37;38.17
26563;BME280;14217;50.986;5.826;2024-01-15T10:54:31;99700.09;;;16.44;38.02
26563;BME280;14217;50.986;5.826;2024-01-15T10:59:34;99701.63;;;16.48;38.24
26563;BME280;14217;50.986;5.826;2024-01-15T11:04:36;99698.59;;;16.56;37.74
26563;BME280;14217;50.986;5.826;2024-01-15T11:09:39;99707.09;;;16.61;37.74
26563;BME280;14217;50.986;5.826;2024-01-15T11:14:51;99708.91;;;16.60;37.78
26563;BME280;14217;50.986;5.826;2024-01-15T11:19:53;99705.22;;;16.63;37.63
26563;BME280;14217;50.986;5.826;2024-01-15T11:24:55;99708.81;;;16.62;37.42
26563;BME280;14217;50.986;5.826;2024-01-15T11:30:04;99710.53;;;16.63;37.71
26563;BME280;14217;50.986;5.826;2024-01-15T11:35:10;99714.38;;;16.57;37.75
26563;BME280;14217;50.986;5.826;2024-01-15T11:40:13;99713.09;;;16.31;36.80
26563;BME280;14217;50.986;5.826;2024-01-15T11:45:18;99720.72;;;16.37;36.39
26563;BME280;14217;50.986;5.826;2024-01-15T11:50:21;99714.19;;;16.27;35.56
26563;BME280;14217;50.986;5.826;2024-01-15T11:55:27;99725.28;;;16.18;35.77
26563;BME280;14217;50.986;5.826;2024-01-15T12:00:30;99738.09;;;16.25;35.57
26563;BME280;14217;50.986;5.826;2024-01-15T12:05:32;99728.50;;;16.40;35.52
26563;BME280;14217;50.986;5.826;2024-01-15T12:10:34;99731.47;;;16.34;36.40
26563;BME280;14217;50.986;5.826;2024-01-15T12:15:36;99729.31;;;16.08;37.14
26563;BME280;14217;50.986;5.826;2024-01-15T12:20:39;99732.13;;;16.04;36.96
26563;BME280;14217;50.986;5.826;2024-01-15T12:25:41;99735.22;;;15.95;37.21
26563;BME280;14217;50.986;5.826;2024-01-15T12:30:46;99729.63;;;16.01;36.20
26563;BME280;14217;50.986;5.826;2024-01-15T12:35:55;99737.38;;;16.22;35.35
26563;BME280;14217;50.986;5.826;2024-01-15T12:40:57;99745.88;;;16.11;34.95
26563;BME280;14217;50.986;5.826;2024-01-15T12:45:59;99747.19;;;16.20;34.98
26563;BME280;14217;50.986;5.826;2024-01-15T12:51:05;99741.84;;;16.21;34.83
26563;BME280;14217;50.986;5.826;2024-01-15T12:56:08;99753.28;;;16.04;34.85
26563;BME280;14217;50.986;5.826;2024-01-15T13:01:10;99759.63;;;16.18;35.61
26563;BME280;14217;50.986;5.826;2024-01-15T13:06:12;99761.97;;;16.40;35.42
26563;BME280;14217;50.986;5.826;2024-01-15T13:11:14;99762.28;;;16.51;35.20
26563;BME280;14217;50.986;5.826;2024-01-15T13:16:16;99766.63;;;16.52;35.30
26563;BME280;14217;50.986;5.826;2024-01-15T13:21:18;99763.06;;;16.53;35.61
26563;BME280;14217;50.986;5.826;2024-01-15T13:26:20;99757.31;;;16.45;37.04
26563;BME280;14217;50.986;5.826;2024-01-15T13:31:22;99764.47;;;16.43;36.81
26563;BME280;14217;50.986;5.826;2024-01-15T13:36:27;99756.41;;;16.29;36.91
26563;BME280;14217;50.986;5.826;2024-01-15T13:41:29;99764.63;;;16.40;37.15
26563;BME280;14217;50.986;5.826;2024-01-15T13:46:31;99778.44;;;16.12;37.92
26563;BME280;14217;50.986;5.826;2024-01-15T13:51:33;99785.91;;;15.86;38.23
26563;BME280;14217;50.986;5.826;2024-01-15T13:56:36;99792.97;;;15.85;38.48
26563;BME280;14217;50.986;5.826;2024-01-15T14:01:38;99800.97;;;15.84;38.23
26563;BME280;14217;50.986;5.826;2024-01-15T14:06:41;99810.44;;;15.88;38.18
26563;BME280;14217;50.986;5.826;2024-01-15T14:11:43;99812.25;;;15.88;38.08
26563;BME280;14217;50.986;5.826;2024-01-15T14:16:45;99812.38;;;15.84;38.22
26563;BME280;14217;50.986;5.826;2024-01-15T14:21:47;99813.22;;;15.85;38.28
26563;BME280;14217;50.986;5.826;2024-01-15T14:26:50;99819.59;;;15.81;38.50
26563;BME280;14217;50.986;5.826;2024-01-15T14:31:55;99818.81;;;15.79;38.21
26563;BME280;14217;50.986;5.826;2024-01-15T14:36:57;99812.19;;;16.07;37.72
26563;BME280;14217;50.986;5.826;2024-01-15T14:42:00;99831.91;;;16.17;37.69
26563;BME280;14217;50.986;5.826;2024-01-15T14:47:02;99845.69;;;16.23;37.33
26563;BME280;14217;50.986;5.826;2024-01-15T14:52:05;99850.56;;;16.31;36.96
26563;BME280;14217;50.986;5.826;2024-01-15T14:57:08;99860.53;;;16.26;37.32
26563;BME280;14217;50.986;5.826;2024-01-15T15:02:10;99871.63;;;16.33;37.01
26563;BME280;14217;50.986;5.826;2024-01-15T15:07:15;99880.16;;;16.38;36.66
26563;BME280;14217;50.986;5.826;2024-01-15T15:12:17;99890.38;;;16.45;36.44
26563;BME280;14217;50.986;5.826;2024-01-15T15:17:19;99887.25;;;16.37;36.87
26563;BME280;14217;50.986;5.826;2024-01-15T15:22:21;99900.56;;;16.53;36.34
26563;BME280;14217;50.986;5.826;2024-01-15T15:27:23;99904.38;;;16.48;36.53
26563;BME280;14217;50.986;5.826;2024-01-15T15:32:25;99915.88;;;16.46;36.46
26563;BME280;14217;50.986;5.826;2024-01-15T15:37:27;99927.63;;;16.23;37.13
26563;BME280;14217;50.986;5.826;2024-01-15T15:42:32;99929.44;;;15.85;37.69
26563;BME280;14217;50.986;5.826;2024-01-15T15:47:34;99937.03;;;15.93;37.73
26563;BME280;14217;50.986;5.826;2024-01-15T15:52:37;99939.19;;;16.02;37.58
26563;BME280;14217;50.986;5.826;2024-01-15T15:57:39;99949.72;;;16.03;37.51
26563;BME280;14217;50.986;5.826;2024-01-15T16:02:41;99959.56;;;16.00;37.62
26563;BME280;14217;50.986;5.826;2024-01-15T16:07:43;99973.34;;;16.07;37.71
26563;BME280;14217;50.986;5.826;2024-01-15T16:12:45;99975.56;;;15.97;37.71
26563;BME280;14217;50.986;5.826;2024-01-15T16:17:51;99975.50;;;15.98;37.77
26563;BME280;14217;50.986;5.826;2024-01-15T16:23:13;99986.19;;;15.95;37.75
26563;BME280;14217;50.986;5.826;2024-01-15T16:28:35;99993.50;;;15.90;37.84
26563;BME280;14217;50.986;5.826;2024-01-15T16:33:37;99994.00;;;15.98;37.81
26563;BME280;14217;50.986;5.826;2024-01-15T16:38:39;99998.34;;;15.99;39.56
26563;BME280;14217;50.986;5.826;2024-01-15T16:43:41;100007.84;;;16.03;39.03
26563;BME280;14217;50.986;5.826;2024-01-15T16:48:43;100013.94;;;16.23;38.74
26563;BME280;14217;50.986;5.826;2024-01-15T16:53:46;100008.09;;;16.16;38.48
26563;BME280;14217;50.986;5.826;2024-01-15T16:58:48;100004.25;;;16.23;37.93
26563;BME280;14217;50.986;5.826;2024-01-15T17:03:50;100026.66;;;16.15;37.85
26563;BME280;14217;50.986;5.826;2024-01-15T17:08:54;100032.28;;;16.09;37.91
26563;BME280;14217;50.986;5.826;2024-01-15T17:13:56;100032.75;;;16.17;37.53
26563;BME280;14217;50.986;5.826;2024-01-15T17:18:58;100044.59;;;16.08;38.13
26563;BME280;14217;50.986;5.826;2024-01-15T17:24:00;100046.41;;;16.08;38.41
26563;BME280;14217;50.986;5.826;2024-01-15T17:29:02;100051.69;;;16.08;38.79
26563;BME280;14217;50.986;5.826;2024-01-15T17:34:06;100077.53;;;16.20;38.51
26563;BME280;14217;50.986;5.826;2024-01-15T17:39:08;100072.59;;;16.12;38.50
26563;BME280;14217;50.986;5.826;2024-01-15T17:44:12;100075.25;;;16.12;38.47
26563;BME280;14217;50.986;5.826;2024-01-15T17:49:14;100073.56;;;16.11;39.17
26563;BME280;14217;50.986;5.826;2024-01-15T17:54:16;100076.59;;;16.21;38.88
26563;BME280;14217;50.986;5.826;2024-01-15T17:59:18;100086.38;;;16.19;38.84
26563;BME280;14217;50.986;5.826;2024-01-15T18:04:20;100092.97;;;16.29;38.61
26563;BME280;14217;50.986;5.826;2024-01-15T18:09:22;100099.53;;;16.20;38.56
26563;BME280;14217;50.986;5.826;2024-01-15T18:14:24;100097.06;;;16.17;38.82
26563;BME280;14217;50.986;5.826;2024-01-15T18:19:26;100098.81;;;16.17;38.80
26563;BME280;14217;50.986;5.826;2024-01-15T18:24:28;100111.91;;;16.20;38.74
26563;BME280;14217;50.986;5.826;2024-01-15T18:29:31;100105.16;;;16.32;38.17
26563;BME280;14217;50.986;5.826;2024-01-15T18:34:33;100116.84;;;16.28;38.34
26563;BME280;14217;50.986;5.826;2024-01-15T18:39:35;100128.66;;;16.19;38.57
26563;BME280;14217;50.986;5.826;2024-01-15T18:44:37;100134.75;;;16.21;38.69
26563;BME280;14217;50.986;5.826;2024-01-15T18:49:41;100142.84;;;16.18;38.75
26563;BME280;14217;50.986;5.826;2024-01-15T18:54:44;100152.97;;;16.27;38.60
26563;BME280;14217;50.986;5.826;2024-01-15T18:59:46;100153.75;;;16.29;38.46
26563;BME280;14217;50.986;5.826;2024-01-15T19:04:48;100159.94;;;16.30;38.32
26563;BME280;14217;50.986;5.826;2024-01-15T19:09:50;100168.84;;;16.27;38.38
26563;BME280;14217;50.986;5.826;2024-01-15T19:14:53;100176.97;;;16.22;38.57
26563;BME280;14217;50.986;5.826;2024-01-15T19:19:55;100179.84;;;16.18;38.82
26563;BME280;14217;50.986;5.826;2024-01-15T19:24:57;100179.94;;;16.15;38.80
26563;BME280;14217;50.986;5.826;2024-01-15T19:30:00;100187.09;;;16.13;38.97
26563;BME280;14217;50.986;5.826;2024-01-15T19:35:02;100192.19;;;16.17;39.03
26563;BME280;14217;50.986;5.826;2024-01-15T19:40:05;100198.59;;;16.12;39.09
26563;BME280;14217;50.986;5.826;2024-01-15T19:45:08;100198.53;;;16.13;39.02
26563;BME280;14217;50.986;5.826;2024-01-15T19:50:10;100201.09;;;16.15;38.88
26563;BME280;14217;50.986;5.826;2024-01-15T19:55:12;100217.91;;;16.14;38.89
26563;BME280;14217;50.986;5.826;2024-01-15T20:00:15;100208.91;;;16.18;38.92
26563;BME280;14217;50.986;5.826;2024-01-15T20:05:17;100208.97;;;16.16;38.73
26563;BME280;14217;50.986;5.826;2024-01-15T20:10:19;100224.72;;;16.19;38.76
26563;BME280;14217;50.986;5.826;2024-01-15T20:15:22;100224.09;;;16.13;38.62
26563;BME280;14217;50.986;5.826;2024-01-15T20:20:24;100230.69;;;16.23;38.23
26563;BME280;14217;50.986;5.826;2024-01-15T20:25:26;100235.16;;;16.41;37.74
26563;BME280;14217;50.986;5.826;2024-01-15T20:30:29;100239.25;;;16.49;37.81
26563;BME280;14217;50.986;5.826;2024-01-15T20:35:32;100233.09;;;16.48;37.73
26563;BME280;14217;50.986;5.826;2024-01-15T20:40:35;100238.66;;;16.42;37.52
26563;BME280;14217;50.986;5.826;2024-01-15T20:45:37;100234.66;;;16.33;37.55
26563;BME280;14217;50.986;5.826;2024-01-15T20:50:39;100247.25;;;16.47;37.16
26563;BME280;14217;50.986;5.826;2024-01-15T20:55:41;100256.03;;;16.48;37.44
26563;BME280;14217;50.986;5.826;2024-01-15T21:00:43;100260.09;;;16.55;37.46
26563;BME280;14217;50.986;5.826;2024-01-15T21:05:45;100265.16;;;16.21;39.10
26563;BME280;14217;50.986;5.826;2024-01-15T21:10:47;100264.94;;;16.05;39.44
26563;BME280;14217;50.986;5.826;2024-01-15T21:15:49;100268.84;;;16.17;39.44
26563;BME280;14217;50.986;5.826;2024-01-15T21:20:51;100267.59;;;16.26;38.83
26563;BME280;14217;50.986;5.826;2024-01-15T21:25:53;100272.50;;;16.34;38.58
26563;BME280;14217;50.986;5.826;2024-01-15T21:30:58;100273.91;;;16.42;38.28
26563;BME280;14217;50.986;5.826;2024-01-15T21:36:03;100280.53;;;16.32;38.45
26563;BME280;14217;50.986;5.826;2024-01-15T21:41:06;100280.91;;;16.23;38.87
26563;BME280;14217;50.986;5.826;2024-01-15T21:46:08;100282.59;;;16.25;38.63
26563;BME280;14217;50.986;5.826;2024-01-15T21:51:10;100278.47;;;16.39;38.34
26563;BME280;14217;50.986;5.826;2024-01-15T21:56:12;100285.56;;;16.38;38.43
26563;BME280;14217;50.986;5.826;2024-01-15T22:01:14;100284.94;;;16.32;38.57
26563;BME280;14217;50.986;5.826;2024-01-15T22:06:17;100284.59;;;16.39;38.16
26563;BME280;14217;50.986;5.826;2024-01-15T22:11:19;100290.47;;;16.46;37.99
26563;BME280;14217;50.986;5.826;2024-01-15T22:16:21;100293.22;;;16.44;38.04
26563;BME280;14217;50.986;5.826;2024-01-15T22:21:23;100301.63;;;16.53;37.96
26563;BME280;14217;50.986;5.826;2024-01-15T22:26:25;100300.47;;;16.39;38.21
26563;BME280;14217;50.986;5.826;2024-01-15T22:31:27;100305.03;;;16.36;38.21
26563;BME280;14217;50.986;5.826;2024-01-15T22:36:29;100313.16;;;16.52;37.75
26563;BME280;14217;50.986;5.826;2024-01-15T22:41:31;100309.19;;;16.41;37.84
26563;BME280;14217;50.986;5.826;2024-01-15T22:46:33;100319.50;;;16.48;37.95
26563;BME280;14217;50.986;5.826;2024-01-15T22:51:35;100323.94;;;16.47;37.81
26563;BME280;14217;50.986;5.826;2024-01-15T22:56:38;100333.94;;;16.40;37.92
26563;BME280;14217;50.986;5.826;2024-01-15T23:01:40;100335.44;;;16.46;37.86
26563;BME280;14217;50.986;5.826;2024-01-15T23:06:42;100347.31;;;16.36;38.07
26563;BME280;14217;50.986;5.826;2024-01-15T23:11:47;100346.00;;;16.46;38.18
26563;BME280;14217;50.986;5.826;2024-01-15T23:16:49;100348.38;;;16.52;37.65
26563;BME280;14217;50.986;5.826;2024-01-15T23:21:52;100358.16;;;16.50;37.79
26563;BME280;14217;50.986;5.826;2024-01-15T23:26:54;100344.63;;;16.37;38.13
26563;BME280;14217;50.986;5.826;2024-01-15T23:31:56;100344.78;;;16.34;38.08
26563;BME280;14217;50.986;5.826;2024-01-15T23:36:58;100348.59;;;16.48;37.93
26563;BME280;14217;50.986;5.826;2024-01-15T23:42:00;100347.75;;;16.47;37.88
26563;BME280;14217;50.986;5.826;2024-01-15T23:47:03;100347.78;;;16.45;38.00
26563;BME280;14217;50.986;5.826;2024-01-15T23:52:06;100353.09;;;16.45;37.77
26563;BME280;14217;50.986;5.826;2024-01-15T23:57:08;100353.22;;;16.42;37.77
